Time;durP1;ratioP1;P1;durP2;ratioP2;P2;SDS_P1;SDS_P2;PMS_P1;PMS_P2;Temp;Humidity;BMP_temperature;BMP_pressure;BME280_temperature;BME280_humidity;BME280_pressure;Samples;Min_cycle;Max_cycle;Signal;HPM_P1;HPM_P2
2021/03/04 00:00:15;;;;;;;35.90;15.88;;;7.00;76.60;;;;;;4988833;28;20031;-84
2021/03/04 00:02:41;;;;;;;34.80;15.85;;;6.90;76.80;;;;;;4987860;28;20027;-85
2021/03/04 00:05:09;;;;;;;28.60;13.10;;;6.90;77.10;;;;;;5001594;28;20035;-85
2021/03/04 00:07:36;;;;;;;33.08;14.88;;;6.80;77.10;;;;;;4989868;28;20031;-85
2021/03/04 00:10:06;;;;;;;41.85;17.88;;;6.80;77.10;;;;;;4987482;28;20050;-85
2021/03/04 00:12:32;;;;;;;38.45;17.83;;;6.90;77.20;;;;;;4982961;28;20121;-85
2021/03/04 00:14:57;;;;;;;31.52;15.90;;;6.90;77.10;;;;;;4985403;28;20575;-84
2021/03/04 00:17:23;;;;;;;49.75;20.38;;;6.80;77.10;;;;;;4988263;28;20461;-84
2021/03/04 00:19:48;;;;;;;32.65;15.52;;;6.70;77.30;;;;;;4990927;28;20498;-85
2021/03/04 00:22:14;;;;;;;32.97;14.25;;;6.60;77.50;;;;;;4985364;28;20066;-84
2021/03/04 00:24:39;;;;;;;32.95;15.80;;;6.70;77.60;;;;;;4988761;28;20058;-84
2021/03/04 00:27:05;;;;;;;25.70;13.57;;;6.60;77.50;;;;;;4979425;28;20026;-84
2021/03/04 00:29:31;;;;;;;33.35;16.25;;;6.70;77.50;;;;;;4979981;28;20026;-85
2021/03/04 00:31:56;;;;;;;30.65;15.55;;;6.70;77.50;;;;;;4991241;28;20500;-85
2021/03/04 00:34:22;;;;;;;29.77;14.80;;;6.70;77.50;;;;;;4990689;28;20038;-85
2021/03/04 00:36:47;;;;;;;31.38;15.25;;;6.70;77.50;;;;;;4990753;28;20033;-84
2021/03/04 00:39:13;;;;;;;21.83;11.43;;;6.70;77.60;;;;;;4964185;28;20034;-85
2021/03/04 00:41:39;;;;;;;22.77;11.10;;;6.60;77.50;;;;;;4972475;28;20034;-84
2021/03/04 00:44:06;;;;;;;28.67;13.27;;;6.70;77.50;;;;;;4976148;28;20049;-85
2021/03/04 00:46:33;;;;;;;24.23;11.15;;;6.70;77.50;;;;;;4982184;28;20045;-85
2021/03/04 00:48:59;;;;;;;29.80;14.10;;;6.70;77.40;;;;;;4966633;28;20122;-85
2021/03/04 00:51:25;;;;;;;23.20;11.73;;;6.70;77.50;;;;;;4966934;28;20027;-85
2021/03/04 00:53:50;;;;;;;31.63;12.85;;;6.70;77.50;;;;;;4988208;28;20042;-85
2021/03/04 00:56:16;;;;;;;25.52;11.77;;;6.80;77.50;;;;;;4980940;28;20534;-85
2021/03/04 00:58:42;;;;;;;27.63;11.35;;;6.80;77.50;;;;;;4969165;28;20509;-85
2021/03/04 01:01:08;;;;;;;26.75;12.02;;;6.80;77.50;;;;;;4977702;28;20018;-85
2021/03/04 01:03:33;;;;;;;29.13;13.10;;;6.80;77.40;;;;;;4984165;28;20470;-84
2021/03/04 01:05:59;;;;;;;30.13;14.52;;;6.80;77.40;;;;;;4976808;28;20076;-86
2021/03/04 01:08:25;;;;;;;27.80;13.18;;;6.80;77.50;;;;;;4966939;28;20088;-86
2021/03/04 01:10:51;;;;;;;27.77;13.07;;;6.70;77.60;;;;;;4981050;28;20031;-86
2021/03/04 01:13:17;;;;;;;24.27;10.60;;;6.70;77.70;;;;;;4950567;28;20118;-85
2021/03/04 01:15:43;;;;;;;21.65;9.05;;;6.70;77.60;;;;;;4983332;28;20169;-85
2021/03/04 01:18:09;;;;;;;28.75;12.57;;;6.80;77.50;;;;;;4977260;28;20019;-86
2021/03/04 01:20:35;;;;;;;25.83;11.75;;;6.80;77.50;;;;;;4965403;28;20108;-86
2021/03/04 01:23:01;;;;;;;22.05;11.10;;;6.80;77.60;;;;;;4967411;28;20018;-85
2021/03/04 01:25:26;;;;;;;18.15;8.88;;;6.70;77.50;;;;;;4977745;28;20690;-84
2021/03/04 01:27:52;;;;;;;24.58;12.15;;;6.70;77.50;;;;;;4971755;28;20015;-85
2021/03/04 01:30:25;;;;;;;28.75;13.98;;;6.70;77.70;;;;;;4957356;28;20030;-86
2021/03/04 01:32:50;;;;;;;25.08;12.77;;;6.70;77.90;;;;;;4989907;28;20022;-85
2021/03/04 01:35:16;;;;;;;24.67;11.82;;;6.70;77.90;;;;;;4978553;28;20477;-86
2021/03/04 01:37:42;;;;;;;24.08;12.27;;;6.70;77.80;;;;;;4997793;28;20023;-86
2021/03/04 01:40:11;;;;;;;25.42;12.38;;;6.70;77.70;;;;;;5010825;28;20543;-85
2021/03/04 01:42:37;;;;;;;24.02;12.05;;;6.70;77.50;;;;;;4990998;28;20026;-84
2021/03/04 01:45:04;;;;;;;20.00;9.52;;;6.80;77.50;;;;;;4989279;28;20053;-84
2021/03/04 01:47:30;;;;;;;23.60;11.68;;;6.80;77.40;;;;;;4989031;28;20032;-84
2021/03/04 01:49:56;;;;;;;20.73;10.00;;;6.80;77.30;;;;;;4990633;28;20113;-85
2021/03/04 01:52:22;;;;;;;25.55;13.02;;;6.80;77.30;;;;;;4990156;28;20034;-84
2021/03/04 01:54:48;;;;;;;22.77;11.43;;;6.90;77.30;;;;;;4989994;28;20104;-84
2021/03/04 01:57:16;;;;;;;26.77;12.57;;;6.80;77.20;;;;;;4990714;28;20499;-86
2021/03/04 01:59:42;;;;;;;22.52;10.13;;;6.80;77.20;;;;;;4990122;28;20129;-84
2021/03/04 02:02:07;;;;;;;21.02;10.50;;;6.80;77.20;;;;;;4991706;28;20113;-84
2021/03/04 02:04:33;;;;;;;20.23;9.63;;;6.90;77.20;;;;;;4990186;28;20408;-84
2021/03/04 02:07:10;;;;;;;26.67;11.40;;;6.90;77.10;;;;;;4993624;28;20034;-85
2021/03/04 02:09:38;;;;;;;23.45;11.25;;;6.80;77.10;;;;;;4978280;28;20041;-85
2021/03/04 02:12:19;;;;;;;26.45;11.00;;;6.80;77.10;;;;;;4993977;28;20030;-84
2021/03/04 02:15:03;;;;;;;21.95;11.07;;;6.80;77.20;;;;;;4972368;28;20042;-85
2021/03/04 02:17:32;;;;;;;26.77;11.98;;;6.80;77.20;;;;;;4989789;28;20041;-85
2021/03/04 02:20:04;;;;;;;25.55;10.93;;;6.80;77.20;;;;;;4993334;28;20030;-84
2021/03/04 02:22:38;;;;;;;21.80;10.40;;;6.80;77.20;;;;;;4979981;28;20045;-84
2021/03/04 02:25:10;;;;;;;23.75;10.98;;;6.80;77.20;;;;;;4993136;28;20038;-83
2021/03/04 02:27:37;;;;;;;27.83;12.93;;;6.80;77.20;;;;;;4992379;28;20076;-84
2021/03/04 02:30:06;;;;;;;25.23;11.77;;;6.80;77.20;;;;;;4991820;28;20041;-84
2021/03/04 02:32:33;;;;;;;24.17;11.90;;;6.70;77.20;;;;;;4993714;28;20077;-84
2021/03/04 02:35:11;;;;;;;22.90;10.50;;;6.70;77.20;;;;;;4965199;28;20039;-82
2021/03/04 02:37:42;;;;;;;24.98;11.32;;;6.70;77.30;;;;;;4988712;28;20021;-84
2021/03/04 02:40:11;;;;;;;26.00;11.93;;;6.70;77.50;;;;;;4991041;28;20045;-83
2021/03/04 02:42:39;;;;;;;29.75;14.25;;;6.80;77.40;;;;;;4992330;28;20034;-84
2021/03/04 02:45:05;;;;;;;25.17;12.05;;;6.80;77.40;;;;;;4986038;28;20018;-85
2021/03/04 02:47:32;;;;;;;22.90;11.40;;;6.70;77.40;;;;;;4992955;28;20065;-85
2021/03/04 02:49:59;;;;;;;22.85;10.82;;;6.70;77.40;;;;;;4989621;28;20187;-84
2021/03/04 02:52:25;;;;;;;20.27;10.30;;;6.70;77.40;;;;;;4986833;28;20848;-84
2021/03/04 02:54:52;;;;;;;23.27;11.30;;;6.70;77.40;;;;;;4987773;28;20664;-84
2021/03/04 02:57:20;;;;;;;23.02;11.23;;;6.70;77.50;;;;;;4989958;28;20061;-84
2021/03/04 02:59:47;;;;;;;27.30;12.82;;;6.60;77.40;;;;;;4989183;28;20026;-85
2021/03/04 03:02:13;;;;;;;22.85;11.10;;;6.60;77.40;;;;;;4987371;28;20349;-85
2021/03/04 03:04:41;;;;;;;19.60;9.25;;;6.50;77.40;;;;;;4992749;28;20014;-85
2021/03/04 03:07:09;;;;;;;18.40;9.32;;;6.50;77.50;;;;;;4992419;28;20030;-83
2021/03/04 03:09:37;;;;;;;17.15;8.45;;;6.50;77.60;;;;;;4985845;28;20422;-84
2021/03/04 03:12:03;;;;;;;21.23;10.13;;;6.50;77.60;;;;;;4993920;28;20121;-82
2021/03/04 03:14:30;;;;;;;23.55;11.77;;;6.50;77.60;;;;;;4996904;28;20078;-84
2021/03/04 03:16:58;;;;;;;20.48;10.43;;;6.50;77.60;;;;;;5008267;28;20030;-84
2021/03/04 03:19:24;;;;;;;22.80;11.73;;;6.50;77.50;;;;;;4987289;28;20058;-84
2021/03/04 03:21:49;;;;;;;17.25;9.82;;;6.50;77.40;;;;;;4987644;28;20018;-85
2021/03/04 03:24:15;;;;;;;18.77;9.10;;;6.50;77.40;;;;;;4988824;28;20030;-85
2021/03/04 03:26:40;;;;;;;20.23;10.55;;;6.50;77.50;;;;;;4989953;28;20019;-84
2021/03/04 03:29:06;;;;;;;15.18;7.57;;;6.40;77.60;;;;;;4991270;28;20500;-84
2021/03/04 03:31:34;;;;;;;22.02;10.93;;;6.30;77.70;;;;;;4991589;28;20572;-84
2021/03/04 03:34:01;;;;;;;20.30;10.82;;;6.20;78.10;;;;;;4985638;28;20109;-84
2021/03/04 03:36:28;;;;;;;25.67;12.60;;;6.20;78.20;;;;;;4975055;28;20033;-84
2021/03/04 03:38:55;;;;;;;24.77;12.55;;;6.10;78.30;;;;;;4992640;28;20128;-83
2021/03/04 03:41:22;;;;;;;23.73;11.88;;;6.00;78.70;;;;;;4992329;28;20030;-84
2021/03/04 03:43:49;;;;;;;26.00;11.73;;;6.00;79.00;;;;;;4973936;28;20030;-85
2021/03/04 03:46:15;;;;;;;24.35;12.65;;;6.00;79.10;;;;;;4992276;28;20022;-83
2021/03/04 03:48:43;;;;;;;16.98;8.35;;;6.00;79.30;;;;;;4991666;28;20030;-84
2021/03/04 03:51:09;;;;;;;19.15;9.20;;;6.00;79.30;;;;;;4991909;28;20038;-85
2021/03/04 03:53:35;;;;;;;21.33;9.82;;;6.00;79.10;;;;;;4991965;28;20027;-86
2021/03/04 03:56:02;;;;;;;22.23;9.80;;;6.00;79.00;;;;;;4992184;28;20050;-86
2021/03/04 03:58:29;;;;;;;27.45;11.05;;;6.00;78.90;;;;;;4991036;28;20037;-84
2021/03/04 04:00:55;;;;;;;20.70;9.68;;;6.10;78.90;;;;;;4988670;28;20057;-85
2021/03/04 04:03:22;;;;;;;16.52;8.10;;;6.10;78.80;;;;;;4990574;28;20022;-86
2021/03/04 04:05:48;;;;;;;24.98;11.05;;;6.10;78.70;;;;;;4991964;28;20058;-86
2021/03/04 04:08:14;;;;;;;19.30;9.15;;;6.10;78.60;;;;;;4991460;28;20404;-86
2021/03/04 04:10:40;;;;;;;20.70;10.75;;;6.20;78.60;;;;;;4991255;28;20088;-87
2021/03/04 04:13:06;;;;;;;20.85;9.98;;;6.20;78.60;;;;;;4991659;28;20514;-86
2021/03/04 04:15:32;;;;;;;24.15;11.10;;;6.20;78.50;;;;;;4988249;28;20081;-85
2021/03/04 04:18:00;;;;;;;18.75;9.60;;;6.20;78.50;;;;;;4973512;28;20077;-84
2021/03/04 04:20:27;;;;;;;24.38;11.57;;;6.20;78.40;;;;;;4973277;28;20105;-84
2021/03/04 04:22:54;;;;;;;29.20;12.93;;;6.20;78.40;;;;;;4983748;28;20474;-85
2021/03/04 04:25:21;;;;;;;28.45;12.02;;;6.20;78.40;;;;;;4971885;28;20135;-85
2021/03/04 04:27:55;;;;;;;21.73;11.02;;;6.20;78.40;;;;;;4982883;28;20609;-85
2021/03/04 04:30:24;;;;;;;22.25;10.25;;;6.20;78.50;;;;;;4993214;28;20077;-85
2021/03/04 04:32:50;;;;;;;16.30;8.15;;;6.20;78.60;;;;;;4973675;28;20088;-86
2021/03/04 04:35:16;;;;;;;25.42;10.85;;;6.10;78.70;;;;;;4991071;28;20038;-86
2021/03/04 04:37:42;;;;;;;21.08;10.55;;;6.10;78.70;;;;;;4973857;28;20030;-86
2021/03/04 04:40:09;;;;;;;15.02;7.38;;;6.10;78.70;;;;;;4991107;28;20030;-85
2021/03/04 04:42:36;;;;;;;17.85;8.63;;;6.10;78.60;;;;;;4991123;28;20527;-86
2021/03/04 04:45:04;;;;;;;17.63;9.45;;;6.10;78.50;;;;;;4987621;28;20054;-85
2021/03/04 04:47:29;;;;;;;19.60;9.73;;;6.20;78.60;;;;;;4990969;28;20077;-86
2021/03/04 04:49:55;;;;;;;24.33;10.95;;;6.20;78.50;;;;;;4995682;28;20041;-86
2021/03/04 04:52:20;;;;;;;20.20;9.27;;;6.20;78.40;;;;;;5009478;28;20054;-85
2021/03/04 04:54:46;;;;;;;16.90;8.65;;;6.20;78.40;;;;;;4992911;28;20054;-85
2021/03/04 04:57:12;;;;;;;21.10;10.13;;;6.30;78.40;;;;;;4991152;28;20069;-85
2021/03/04 04:59:38;;;;;;;15.43;8.00;;;6.20;78.40;;;;;;4971883;28;20113;-85
2021/03/04 05:02:03;;;;;;;21.67;11.18;;;6.20;78.40;;;;;;4973483;28;20034;-85
2021/03/04 05:04:29;;;;;;;16.08;8.65;;;6.20;78.50;;;;;;4991139;28;20034;-86
2021/03/04 05:06:54;;;;;;;16.48;7.93;;;6.10;78.60;;;;;;4991513;28;20437;-85
2021/03/04 05:09:20;;;;;;;23.67;10.32;;;6.10;78.50;;;;;;4988367;28;20084;-86
2021/03/04 05:11:46;;;;;;;16.95;7.53;;;6.10;78.40;;;;;;4989295;28;20495;-84
2021/03/04 05:14:11;;;;;;;18.52;8.63;;;6.20;78.40;;;;;;4990544;28;20039;-85
2021/03/04 05:16:37;;;;;;;19.73;8.98;;;6.20;78.30;;;;;;4990995;28;20026;-85
2021/03/04 05:19:02;;;;;;;15.80;7.70;;;6.20;78.30;;;;;;4991206;28;20034;-84
2021/03/04 05:21:28;;;;;;;19.17;8.45;;;6.20;78.30;;;;;;4991394;28;20030;-85
2021/03/04 05:23:53;;;;;;;17.08;7.63;;;6.20;78.20;;;;;;4991225;28;20703;-84
2021/03/04 05:26:19;;;;;;;17.05;8.73;;;6.20;78.10;;;;;;4988705;28;20022;-85
2021/03/04 05:28:44;;;;;;;17.45;8.07;;;6.20;78.10;;;;;;4973858;28;20029;-86
2021/03/04 05:31:10;;;;;;;12.90;6.55;;;6.20;78.00;;;;;;4991681;28;20129;-86
2021/03/04 05:33:35;;;;;;;16.85;8.55;;;6.20;78.10;;;;;;4991463;28;20023;-86
2021/03/04 05:36:01;;;;;;;18.48;9.85;;;6.20;78.10;;;;;;4973627;28;20050;-86
2021/03/04 05:38:26;;;;;;;18.17;8.77;;;6.10;78.30;;;;;;4991596;28;20029;-85
2021/03/04 05:40:54;;;;;;;25.42;12.48;;;6.00;78.40;;;;;;4992814;28;20105;-85
2021/03/04 05:43:20;;;;;;;22.08;10.30;;;6.00;78.80;;;;;;4997236;28;20026;-85
2021/03/04 05:45:49;;;;;;;20.30;10.18;;;6.00;78.80;;;;;;4998934;28;20504;-87
2021/03/04 05:48:19;;;;;;;20.38;10.30;;;6.00;78.80;;;;;;4985615;28;20023;-84
2021/03/04 05:50:57;;;;;;;22.73;10.85;;;6.00;78.80;;;;;;4994762;28;20022;-85
2021/03/04 05:53:23;;;;;;;16.92;8.57;;;6.00;78.80;;;;;;4992908;28;20156;-85
2021/03/04 05:55:49;;;;;;;19.42;8.93;;;6.00;78.70;;;;;;4994210;28;20034;-85
2021/03/04 05:58:15;;;;;;;19.50;8.93;;;6.00;78.60;;;;;;4998344;28;20031;-85
2021/03/04 06:00:44;;;;;;;21.77;10.40;;;6.00;79.10;;;;;;5014579;28;20018;-86
2021/03/04 06:03:11;;;;;;;19.77;8.30;;;6.00;78.40;;;;;;5015542;28;20126;-86
2021/03/04 06:05:37;;;;;;;18.88;8.98;;;6.10;78.50;;;;;;5014811;28;20034;-86
2021/03/04 06:08:04;;;;;;;20.95;9.50;;;6.10;78.50;;;;;;4996330;28;20032;-85
2021/03/04 06:10:31;;;;;;;18.80;9.65;;;6.10;78.50;;;;;;4990097;28;20042;-85
2021/03/04 06:12:57;;;;;;;17.75;8.43;;;6.10;78.40;;;;;;4991809;28;20034;-86
2021/03/04 06:15:23;;;;;;;19.23;9.23;;;6.10;78.40;;;;;;4993586;28;20030;-86
2021/03/04 06:17:57;;;;;;;18.88;9.15;;;6.00;78.30;;;;;;4993500;28;20419;-85
2021/03/04 06:20:24;;;;;;;25.48;11.10;;;6.10;79.00;;;;;;4976064;28;20023;-85
2021/03/04 06:22:50;;;;;;;17.30;8.23;;;6.00;78.40;;;;;;4993641;28;20035;-86
2021/03/04 06:25:16;;;;;;;18.05;8.32;;;6.10;78.40;;;;;;4978210;28;20029;-86
2021/03/04 06:27:46;;;;;;;20.60;10.18;;;6.10;78.40;;;;;;5000781;28;20050;-84
2021/03/04 06:30:14;;;;;;;17.48;8.10;;;6.00;78.30;;;;;;5003141;28;20026;-84
2021/03/04 06:32:52;;;;;;;17.02;7.53;;;6.10;78.40;;;;;;4989919;28;20113;-83
2021/03/04 06:35:18;;;;;;;20.85;9.52;;;6.10;78.30;;;;;;4989704;28;20450;-84
2021/03/04 06:37:45;;;;;;;19.60;8.73;;;6.10;78.20;;;;;;4993548;28;20022;-84
2021/03/04 06:40:16;;;;;;;20.92;10.90;;;6.10;78.80;;;;;;4989099;28;20045;-84
2021/03/04 06:42:43;;;;;;;22.55;9.57;;;6.10;78.50;;;;;;4975968;28;20501;-83
2021/03/04 06:45:29;;;;;;;22.45;10.48;;;6.10;78.60;;;;;;4991888;28;20157;-84
2021/03/04 06:48:08;;;;;;;23.98;10.95;;;6.10;78.60;;;;;;4990869;28;20039;-85
2021/03/04 06:50:33;;;;;;;22.20;11.27;;;6.00;78.60;;;;;;4984407;28;20018;-86
2021/03/04 06:53:13;;;;;;;25.08;12.27;;;6.00;78.60;;;;;;4981489;28;20366;-86
2021/03/04 06:56:04;;;;;;;23.00;10.73;;;5.90;78.70;;;;;;4983490;28;20022;-84
2021/03/04 06:58:41;;;;;;;13.45;6.53;;;5.90;78.90;;;;;;4986440;28;20365;-87
2021/03/04 07:01:17;;;;;;;21.38;9.73;;;5.80;78.80;;;;;;4977125;28;20023;-87
2021/03/04 07:03:43;;;;;;;23.23;11.63;;;5.80;78.90;;;;;;4980846;28;20381;-87
2021/03/04 07:06:14;;;;;;;24.92;10.85;;;5.90;78.90;;;;;;4983211;28;20436;-93
2021/03/04 07:08:42;;;;;;;23.33;10.60;;;5.80;78.80;;;;;;4976939;28;20493;-87
2021/03/04 07:11:10;;;;;;;17.50;7.63;;;5.80;78.80;;;;;;4983666;28;20535;-86
2021/03/04 07:13:38;;;;;;;20.45;8.30;;;5.80;78.90;;;;;;4980129;28;20109;-86
2021/03/04 07:16:07;;;;;;;23.00;9.02;;;5.80;78.90;;;;;;4977111;28;20038;-87
2021/03/04 07:18:44;;;;;;;14.63;6.82;;;5.90;78.90;;;;;;4970616;28;20081;-88
2021/03/04 07:21:12;;;;;;;16.17;7.63;;;5.90;78.70;;;;;;4952106;28;20046;-86
2021/03/04 07:23:40;;;;;;;16.98;7.85;;;6.00;78.70;;;;;;4972538;28;20029;-85
2021/03/04 07:26:07;;;;;;;19.90;8.52;;;5.90;78.50;;;;;;4984790;28;20493;-84
2021/03/04 07:28:35;;;;;;;24.30;10.98;;;6.00;78.50;;;;;;4986277;28;20023;-86
2021/03/04 07:31:02;;;;;;;21.35;8.88;;;5.90;78.60;;;;;;4984883;28;20027;-86
2021/03/04 07:33:29;;;;;;;19.35;9.02;;;5.90;78.70;;;;;;4978968;28;20033;-84
2021/03/04 07:35:56;;;;;;;20.00;8.85;;;5.90;78.80;;;;;;4975894;28;20079;-85
2021/03/04 07:38:25;;;;;;;18.77;8.30;;;5.90;78.80;;;;;;4972777;28;20033;-86
2021/03/04 07:41:08;;;;;;;20.30;9.00;;;5.90;78.80;;;;;;4982779;28;20492;-85
2021/03/04 07:43:46;;;;;;;20.50;9.13;;;6.00;78.80;;;;;;4959378;28;20054;-85
2021/03/04 07:46:24;;;;;;;18.70;8.18;;;6.00;78.80;;;;;;4968005;28;20037;-86
2021/03/04 07:48:51;;;;;;;20.40;8.73;;;5.90;78.60;;;;;;4993162;28;20034;-88
2021/03/04 07:51:17;;;;;;;23.48;11.68;;;6.00;78.60;;;;;;4988128;28;20041;-88
2021/03/04 07:53:44;;;;;;;21.85;9.13;;;5.90;78.70;;;;;;4987697;28;20109;-90
2021/03/04 07:56:25;;;;;;;15.80;7.20;;;5.90;78.70;;;;;;4984674;28;20780;-90
2021/03/04 07:59:11;;;;;;;19.40;8.43;;;5.90;78.70;;;;;;4994213;28;20026;-91
2021/03/04 08:01:54;;;;;;;21.20;8.95;;;6.00;78.90;;;;;;4964787;28;20027;-87
2021/03/04 08:04:25;;;;;;;18.77;8.55;;;6.00;78.70;;;;;;5007238;28;20077;-90
2021/03/04 08:06:55;;;;;;;19.60;8.48;;;6.00;78.70;;;;;;4977901;28;20153;-86
2021/03/04 08:09:29;;;;;;;16.10;7.85;;;6.00;78.70;;;;;;4975149;28;20064;-90
2021/03/04 08:12:08;;;;;;;23.13;9.35;;;6.00;78.70;;;;;;4977061;28;20030;-90
2021/03/04 08:14:35;;;;;;;16.33;7.20;;;6.00;78.80;;;;;;4975099;28;20045;-88
2021/03/04 08:17:02;;;;;;;24.90;9.80;;;6.00;78.80;;;;;;4970875;28;20018;-90
2021/03/04 08:19:32;;;;;;;21.15;8.50;;;6.00;78.80;;;;;;4993267;28;20030;-88
2021/03/04 08:22:08;;;;;;;24.80;10.15;;;6.00;78.80;;;;;;4984953;28;20401;-90
2021/03/04 08:24:36;;;;;;;23.08;9.05;;;6.00;78.80;;;;;;4991313;28;20076;-87
2021/03/04 08:27:03;;;;;;;28.52;10.93;;;6.00;78.70;;;;;;4984873;28;20015;-92
2021/03/04 08:29:29;;;;;;;28.98;11.52;;;5.90;78.90;;;;;;4993656;28;20591;-86
2021/03/04 08:31:56;;;;;;;20.88;9.63;;;5.80;79.30;;;;;;4984918;28;20094;-87
2021/03/04 08:34:33;;;;;;;26.23;10.85;;;5.80;79.40;;;;;;4993371;28;20061;-93
2021/03/04 08:36:58;;;;;;;20.80;8.18;;;5.80;79.60;;;;;;4997070;28;20018;-88
2021/03/04 08:39:31;;;;;;;25.63;11.00;;;5.80;79.70;;;;;;4996200;28;20038;-89
2021/03/04 08:42:04;;;;;;;28.05;11.65;;;5.80;79.50;;;;;;5000198;28;20030;-89
2021/03/04 08:44:29;;;;;;;22.88;10.18;;;5.80;79.60;;;;;;4998860;28;20047;-91
2021/03/04 08:46:55;;;;;;;26.13;10.90;;;5.70;79.60;;;;;;5002916;28;20045;-91
2021/03/04 08:49:24;;;;;;;15.52;6.53;;;5.70;79.60;;;;;;4999990;28;20061;-90
2021/03/04 08:51:50;;;;;;;22.40;9.63;;;5.80;79.70;;;;;;4993218;28;20044;-90
2021/03/04 08:54:23;;;;;;;25.10;10.10;;;5.70;79.70;;;;;;4974775;28;20031;-88
2021/03/04 08:57:06;;;;;;;20.65;8.73;;;5.60;79.90;;;;;;4986084;28;20077;-88
2021/03/04 08:59:32;;;;;;;18.92;8.38;;;5.70;80.00;;;;;;4980323;28;20495;-92
2021/03/04 09:01:59;;;;;;;19.52;8.23;;;5.70;79.80;;;;;;4996272;28;20022;-86
2021/03/04 09:04:28;;;;;;;21.52;9.40;;;5.70;79.80;;;;;;4986817;28;20110;-88
2021/03/04 09:06:55;;;;;;;18.60;8.25;;;5.80;79.70;;;;;;4991874;28;20102;-91
2021/03/04 09:09:24;;;;;;;18.83;8.15;;;5.80;79.60;;;;;;4978528;28;20029;-90
2021/03/04 09:11:50;;;;;;;16.13;6.53;;;5.80;79.40;;;;;;4993653;28;20027;-90
2021/03/04 09:14:17;;;;;;;22.45;9.23;;;5.90;79.40;;;;;;4975533;28;20050;-89
2021/03/04 09:16:44;;;;;;;18.02;7.82;;;5.90;79.30;;;;;;4990657;28;20019;-85
2021/03/04 09:19:22;;;;;;;18.90;8.15;;;5.90;79.10;;;;;;4974317;28;20025;-90
2021/03/04 09:21:48;;;;;;;15.38;6.82;;;5.90;79.00;;;;;;4995856;28;20077;-90
2021/03/04 09:24:17;;;;;;;17.05;7.15;;;6.00;79.00;;;;;;4983374;28;20027;-88
2021/03/04 09:26:44;;;;;;;15.30;6.80;;;6.00;79.00;;;;;;4991791;28;20025;-88
2021/03/04 09:29:10;;;;;;;14.80;6.32;;;6.00;78.90;;;;;;4994072;28;20080;-89
2021/03/04 09:31:35;;;;;;;17.65;7.25;;;6.00;78.80;;;;;;4975932;28;20022;-89
2021/03/04 09:34:14;;;;;;;16.30;7.40;;;6.00;78.80;;;;;;5004583;28;20029;-88
2021/03/04 09:36:39;;;;;;;16.75;8.30;;;6.00;78.90;;;;;;5003123;28;20046;-88
2021/03/04 09:39:05;;;;;;;18.48;8.27;;;6.00;78.90;;;;;;4992767;28;20041;-88
2021/03/04 09:41:31;;;;;;;18.65;7.97;;;6.00;78.90;;;;;;4990644;28;20414;-86
2021/03/04 09:44:01;;;;;;;13.48;6.30;;;6.00;79.00;;;;;;4951532;29;20035;-88
2021/03/04 09:46:30;;;;;;;15.57;7.70;;;6.00;79.00;;;;;;4979856;28;20045;-89
2021/03/04 09:49:20;;;;;;;15.23;6.72;;;6.00;79.00;;;;;;4982814;28;20023;-89
2021/03/04 09:51:47;;;;;;;20.48;9.85;;;6.00;79.00;;;;;;4992262;28;20054;-92
2021/03/04 09:54:26;;;;;;;15.10;7.20;;;6.00;79.10;;;;;;4992711;28;20482;-87
2021/03/04 09:57:14;;;;;;;13.43;6.30;;;6.00;79.30;;;;;;4993449;28;20113;-89
2021/03/04 09:59:55;;;;;;;13.75;6.38;;;6.00;79.10;;;;;;4989709;28;20484;-91
2021/03/04 10:02:26;;;;;;;14.10;7.07;;;6.10;79.10;;;;;;4964550;28;20139;-84
2021/03/04 10:05:00;;;;;;;16.67;8.10;;;6.10;78.90;;;;;;4968717;28;20117;-85
2021/03/04 10:07:27;;;;;;;14.90;6.75;;;6.10;78.80;;;;;;4986649;28;20026;-86
2021/03/04 10:09:55;;;;;;;17.42;8.50;;;6.10;78.70;;;;;;4972738;28;20025;-86
2021/03/04 10:12:22;;;;;;;16.80;8.13;;;6.00;78.70;;;;;;4968456;28;20416;-86
2021/03/04 10:14:49;;;;;;;17.10;8.15;;;6.00;78.70;;;;;;4980166;28;20145;-84
2021/03/04 10:17:16;;;;;;;13.73;6.45;;;6.00;78.60;;;;;;4980312;28;20033;-84
2021/03/04 10:19:43;;;;;;;13.93;6.57;;;6.00;78.50;;;;;;4989731;28;20068;-85
2021/03/04 10:22:09;;;;;;;12.77;6.07;;;6.00;78.70;;;;;;4980633;28;20085;-86
2021/03/04 10:24:35;;;;;;;12.48;6.30;;;6.00;78.70;;;;;;4967808;28;20027;-85
2021/03/04 10:27:02;;;;;;;10.13;5.00;;;6.10;78.80;;;;;;4995664;28;20031;-83
2021/03/04 10:29:39;;;;;;;15.93;7.35;;;5.90;78.80;;;;;;4967617;28;20018;-89
2021/03/04 10:32:06;;;;;;;11.25;5.97;;;5.90;78.90;;;;;;4992194;28;20022;-93
2021/03/04 10:34:33;;;;;;;13.30;6.20;;;5.90;78.90;;;;;;4995390;28;20069;-88
2021/03/04 10:36:59;;;;;;;14.18;6.50;;;5.90;79.20;;;;;;4997101;28;20030;-88
2021/03/04 10:39:24;;;;;;;10.10;5.18;;;5.90;79.00;;;;;;4989208;28;20026;-86
2021/03/04 10:41:50;;;;;;;12.60;6.05;;;6.00;78.90;;;;;;4999985;28;20025;-90
2021/03/04 10:44:17;;;;;;;11.60;5.47;;;6.00;78.80;;;;;;4979772;28;20065;-88
2021/03/04 10:46:42;;;;;;;17.67;7.55;;;6.10;78.70;;;;;;5004523;28;20032;-88
2021/03/04 10:49:08;;;;;;;15.35;6.95;;;6.10;78.70;;;;;;4994880;28;20034;-89
2021/03/04 10:51:35;;;;;;;11.82;5.70;;;6.10;78.60;;;;;;4988996;28;20227;-88
2021/03/04 10:54:00;;;;;;;8.57;4.10;;;6.10;78.60;;;;;;4993385;28;20559;-91
2021/03/04 10:56:26;;;;;;;11.55;6.05;;;6.20;78.40;;;;;;4977709;28;20019;-89
2021/03/04 10:58:52;;;;;;;11.82;5.72;;;6.20;78.30;;;;;;4977057;28;20125;-89
2021/03/04 11:01:18;;;;;;;11.13;5.43;;;6.20;78.20;;;;;;4975978;28;20031;-89
2021/03/04 11:03:43;;;;;;;11.07;5.55;;;6.20;78.10;;;;;;4989518;28;20023;-89
2021/03/04 11:06:10;;;;;;;10.55;5.13;;;6.20;78.00;;;;;;4974294;28;20030;-88
2021/03/04 11:08:36;;;;;;;9.35;4.50;;;6.20;78.00;;;;;;4978710;28;20031;-88
2021/03/04 11:11:02;;;;;;;11.60;5.55;;;6.30;78.00;;;;;;5006118;28;20094;-88
2021/03/04 11:13:28;;;;;;;13.90;6.70;;;6.10;78.00;;;;;;4982556;28;20433;-91
2021/03/04 11:15:56;;;;;;;13.30;6.43;;;6.10;78.20;;;;;;4990359;28;20031;-87
2021/03/04 11:18:22;;;;;;;10.00;5.43;;;6.10;78.30;;;;;;4964734;28;20046;-89
2021/03/04 11:20:47;;;;;;;10.95;5.70;;;6.20;78.20;;;;;;4992392;28;20034;-89
2021/03/04 11:23:13;;;;;;;8.30;4.40;;;6.20;78.10;;;;;;4981050;28;20038;-90
2021/03/04 11:25:39;;;;;;;9.38;5.53;;;6.20;78.60;;;;;;4989379;28;20018;-89
2021/03/04 11:28:06;;;;;;;10.75;5.43;;;6.20;78.10;;;;;;4991226;28;20034;-88
2021/03/04 11:30:34;;;;;;;10.30;4.35;;;6.20;78.10;;;;;;4974993;28;20057;-89
2021/03/04 11:33:04;;;;;;;9.23;4.72;;;6.20;78.10;;;;;;4975450;28;20056;-88
2021/03/04 11:35:33;;;;;;;8.35;4.97;;;6.20;78.00;;;;;;4990485;28;20637;-89
2021/03/04 11:37:59;;;;;;;6.95;3.97;;;6.10;78.00;;;;;;4993732;28;20034;-90
2021/03/04 11:40:25;;;;;;;7.90;4.47;;;6.10;78.00;;;;;;4995381;28;20038;-90
2021/03/04 11:42:51;;;;;;;8.60;4.32;;;6.10;78.10;;;;;;4994162;28;20410;-89
2021/03/04 11:45:16;;;;;;;6.88;3.97;;;6.00;78.10;;;;;;4986884;28;20030;-90
2021/03/04 11:47:42;;;;;;;5.95;4.03;;;6.10;78.10;;;;;;4984851;28;20504;-90
2021/03/04 11:50:10;;;;;;;7.10;3.95;;;6.10;77.90;;;;;;4960682;28;20125;-90
2021/03/04 11:52:36;;;;;;;6.25;3.53;;;6.00;77.60;;;;;;4977246;28;20027;-92
2021/03/04 11:55:03;;;;;;;6.03;3.80;;;6.00;77.60;;;;;;4992607;28;20595;-88
2021/03/04 11:57:29;;;;;;;5.50;3.05;;;6.00;78.00;;;;;;4973012;28;20465;-87
2021/03/04 11:59:57;;;;;;;5.75;3.15;;;6.00;77.30;;;;;;4993554;28;20466;-89
2021/03/04 12:02:25;;;;;;;4.35;3.10;;;6.10;77.20;;;;;;4989322;28;20022;-90
2021/03/04 12:04:52;;;;;;;5.00;3.13;;;6.20;77.00;;;;;;4976625;28;20170;-89
2021/03/04 12:07:17;;;;;;;4.97;3.05;;;6.30;76.70;;;;;;4996335;28;20073;-93
2021/03/04 12:09:43;;;;;;;6.03;3.42;;;6.40;76.30;;;;;;4996120;28;20030;-89
2021/03/04 12:12:10;;;;;;;5.10;3.05;;;6.50;75.80;;;;;;4989415;28;20548;-91
2021/03/04 12:14:35;;;;;;;4.80;3.03;;;6.60;75.60;;;;;;4994572;28;20042;-89
2021/03/04 12:17:01;;;;;;;4.20;2.75;;;6.80;75.30;;;;;;4991999;28;20030;-92
2021/03/04 12:19:26;;;;;;;3.97;2.70;;;6.90;75.00;;;;;;5005272;28;20074;-88
2021/03/04 12:21:52;;;;;;;4.22;2.75;;;6.90;74.50;;;;;;5011919;28;20583;-90
2021/03/04 12:24:17;;;;;;;4.30;2.80;;;6.90;74.40;;;;;;5012717;28;20090;-91
2021/03/04 12:26:44;;;;;;;4.28;2.20;;;6.90;73.80;;;;;;5004429;28;20027;-87
2021/03/04 12:29:10;;;;;;;4.07;2.45;;;7.00;73.70;;;;;;4988641;28;20019;-90
2021/03/04 12:31:44;;;;;;;4.47;3.00;;;6.90;73.30;;;;;;4983255;28;20050;-91
2021/03/04 12:34:09;;;;;;;3.42;2.17;;;6.90;73.10;;;;;;4980152;28;20058;-90
2021/03/04 12:36:35;;;;;;;3.13;2.33;;;6.90;73.10;;;;;;4991824;28;20006;-88
2021/03/04 12:39:01;;;;;;;3.42;2.42;;;7.00;73.00;;;;;;5010864;28;20030;-89
2021/03/04 12:41:28;;;;;;;3.40;2.20;;;7.00;72.60;;;;;;5007504;28;20348;-92
2021/03/04 12:43:55;;;;;;;2.72;1.90;;;7.00;72.60;;;;;;5003601;28;20011;-91
2021/03/04 12:46:21;;;;;;;4.57;2.80;;;7.10;72.60;;;;;;5005127;28;20027;-91